createdAt,value
2023-01-08T00:00:38.892Z,19.92
2023-01-08T00:04:20.961Z,21.73
2023-01-08T00:08:03.348Z,16.03
2023-01-08T00:11:45.473Z,27.38
2023-01-08T00:15:28.265Z,16.38
2023-01-08T00:19:14.594Z,22.23
2023-01-08T00:22:56.680Z,24.00
2023-01-08T00:26:38.606Z,21.08
2023-01-08T00:30:20.897Z,22.00
2023-01-08T00:34:02.824Z,23.97
2023-01-08T00:37:44.809Z,24.70
2023-01-08T00:41:26.812Z,24.83
2023-01-08T00:45:09.302Z,25.27
2023-01-08T00:48:51.243Z,21.52
2023-01-08T00:52:33.238Z,24.27
2023-01-08T00:56:15.185Z,23.55
2023-01-08T00:59:57.145Z,24.80
2023-01-08T01:03:39.137Z,28.42
2023-01-08T01:07:21.250Z,21.75
2023-01-08T01:11:23.396Z,16.73
2023-01-08T01:15:08.488Z,17.70
2023-01-08T01:18:52.337Z,20.38
2023-01-08T01:22:34.468Z,19.92
2023-01-08T01:26:18.111Z,15.18
2023-01-08T01:30:00.195Z,17.48
2023-01-08T01:33:43.015Z,15.35
2023-01-08T01:37:25.335Z,15.30
2023-01-08T01:41:29.875Z,10.93
2023-01-08T01:45:22.840Z,8.93
2023-01-08T01:49:15.620Z,6.10
2023-01-08T01:53:06.086Z,9.30
2023-01-08T01:56:48.331Z,8.88
2023-01-08T02:00:32.058Z,4.77
2023-01-08T02:04:14.692Z,4.47
2023-01-08T02:08:07.562Z,6.22
2023-01-08T02:12:20.989Z,4.72
2023-01-08T02:16:16.131Z,5.97
2023-01-08T02:20:21.229Z,6.72
2023-01-08T02:24:17.407Z,6.35
2023-01-08T02:28:03.298Z,10.10
2023-01-08T02:31:45.625Z,5.88
2023-01-08T02:35:48.960Z,6.57
2023-01-08T02:39:49.623Z,6.00
2023-01-08T02:43:45.959Z,8.60
2023-01-08T02:47:33.825Z,6.90
2023-01-08T02:51:19.684Z,5.35
2023-01-08T02:55:03.845Z,6.50
2023-01-08T02:58:48.134Z,6.70
2023-01-08T03:02:33.311Z,3.72
2023-01-08T03:06:18.993Z,3.70
2023-01-08T03:10:01.414Z,3.13
2023-01-08T03:13:52.915Z,3.15
2023-01-08T03:17:43.115Z,5.60
2023-01-08T03:21:26.282Z,2.33
2023-01-08T03:25:10.020Z,3.20
2023-01-08T03:28:57.517Z,4.60
2023-01-08T03:32:42.386Z,5.23
2023-01-08T03:36:30.095Z,4.43
2023-01-08T03:40:18.382Z,6.88
2023-01-08T03:44:00.628Z,4.87
2023-01-08T03:47:44.173Z,4.93
2023-01-08T03:51:26.565Z,5.50
2023-01-08T03:55:30.492Z,7.30
2023-01-08T03:59:15.832Z,5.70
2023-01-08T04:02:58.017Z,3.78
2023-01-08T04:06:40.323Z,6.93
2023-01-08T04:10:22.590Z,4.97
2023-01-08T04:14:04.520Z,6.57
2023-01-08T04:17:46.547Z,5.30
2023-01-08T04:21:28.546Z,5.27
2023-01-08T04:25:11.210Z,8.27
2023-01-08T04:28:55.581Z,6.43
2023-01-08T04:32:37.578Z,11.60
2023-01-08T04:36:19.580Z,6.63
2023-01-08T04:40:01.547Z,6.32
2023-01-08T04:43:43.497Z,9.32
2023-01-08T04:47:25.504Z,5.87
2023-01-08T04:51:07.679Z,7.55
2023-01-08T04:54:49.714Z,6.47
2023-01-08T04:58:32.958Z,4.67
2023-01-08T05:02:15.168Z,6.90
2023-01-08T05:06:00.233Z,13.05
2023-01-08T05:09:42.177Z,9.77
2023-01-08T05:13:24.154Z,4.75
2023-01-08T05:17:06.265Z,5.43
2023-01-08T05:20:48.222Z,9.95
2023-01-08T05:24:30.250Z,6.73
2023-01-08T05:28:12.207Z,10.18
2023-01-08T05:31:54.392Z,5.60
2023-01-08T05:35:39.136Z,9.70
2023-01-08T05:39:21.141Z,8.98
2023-01-08T05:43:05.343Z,10.55
2023-01-08T05:46:47.347Z,6.87
2023-01-08T05:50:30.409Z,6.88
2023-01-08T05:54:12.333Z,9.23
2023-01-08T05:57:54.240Z,12.27
2023-01-08T06:01:36.292Z,8.00
2023-01-08T06:05:18.311Z,10.30
2023-01-08T06:09:00.561Z,9.38
2023-01-08T06:12:42.635Z,8.33
2023-01-08T06:16:24.547Z,9.57
2023-01-08T06:20:06.955Z,7.38
2023-01-08T06:23:48.979Z,11.57
2023-01-08T06:27:30.928Z,14.77
2023-01-08T06:31:12.943Z,9.13
2023-01-08T06:34:54.849Z,13.20
2023-01-08T06:38:37.692Z,14.10
2023-01-08T06:42:19.736Z,9.60
2023-01-08T06:46:01.799Z,11.32
2023-01-08T06:49:43.794Z,14.13
2023-01-08T06:53:25.806Z,16.20
2023-01-08T06:57:07.817Z,7.45
2023-01-08T07:00:50.163Z,10.87
2023-01-08T07:04:32.115Z,11.88
2023-01-08T07:08:18.186Z,11.52
2023-01-08T07:12:00.099Z,9.90
2023-01-08T07:15:43.122Z,7.17
2023-01-08T07:19:25.127Z,10.38
2023-01-08T07:23:10.297Z,16.33
2023-01-08T07:26:52.493Z,8.70
2023-01-08T07:30:34.559Z,7.60
2023-01-08T07:34:16.601Z,13.10
2023-01-08T07:37:58.615Z,7.80
2023-01-08T07:41:40.557Z,9.20
2023-01-08T07:45:22.562Z,11.88
2023-01-08T07:49:05.326Z,12.38
2023-01-08T07:52:47.288Z,12.60
2023-01-08T07:56:29.244Z,13.88
2023-01-08T08:00:11.827Z,11.35
2023-01-08T08:03:53.723Z,18.00
2023-01-08T08:07:36.227Z,16.23
2023-01-08T08:11:18.129Z,14.85
2023-01-08T08:15:00.089Z,9.53
2023-01-08T08:18:42.074Z,13.73
2023-01-08T08:22:24.537Z,11.63
2023-01-08T08:26:07.826Z,9.55
2023-01-08T08:29:49.732Z,9.80
2023-01-08T08:33:31.800Z,11.05
2023-01-08T08:37:13.772Z,13.32
2023-01-08T08:40:56.215Z,9.90
2023-01-08T08:44:59.271Z,9.63
2023-01-08T08:48:41.586Z,10.60
2023-01-08T08:52:24.120Z,8.60
2023-01-08T08:56:13.415Z,10.35
2023-01-08T08:59:55.843Z,9.53
2023-01-08T09:03:38.778Z,13.27
2023-01-08T09:07:31.509Z,9.18
2023-01-08T09:11:14.628Z,11.53
2023-01-08T09:14:57.376Z,14.63
2023-01-08T09:18:47.110Z,14.77
2023-01-08T09:22:32.192Z,12.23
2023-01-08T09:30:17.581Z,7.47
2023-01-08T09:33:59.729Z,19.05
2023-01-08T09:38:14.478Z,12.07
2023-01-08T09:41:58.500Z,11.05
2023-01-08T09:45:53.142Z,8.77
2023-01-08T09:49:43.634Z,12.80
2023-01-08T09:53:55.128Z,7.30
2023-01-08T10:01:57.857Z,5.55
2023-01-08T10:06:14.175Z,6.38
2023-01-08T10:09:56.722Z,4.95
2023-01-08T10:17:46.321Z,5.13
2023-01-08T10:21:59.237Z,5.90
2023-01-08T10:30:08.335Z,6.53
2023-01-08T10:38:02.638Z,5.95
2023-01-08T10:42:16.325Z,2.63
2023-01-08T10:54:58.737Z,4.80
2023-01-08T11:02:50.524Z,11.77
2023-01-08T11:19:34.479Z,6.65
2023-01-08T11:27:39.619Z,3.70
2023-01-08T11:32:03.691Z,4.80
2023-01-08T11:36:20.372Z,4.35
2023-01-08T11:40:03.350Z,8.03
2023-01-08T11:44:09.718Z,3.72
2023-01-08T11:52:31.214Z,6.57
2023-01-08T12:37:21.972Z,9.40
2023-01-08T12:45:22.950Z,6.57
2023-01-08T12:49:51.753Z,4.55
2023-01-08T12:54:02.961Z,5.57
2023-01-08T13:15:45.629Z,4.40
2023-01-08T13:19:58.797Z,3.47
2023-01-08T13:23:41.036Z,4.93
2023-01-08T13:31:28.265Z,4.18
2023-01-08T13:35:44.993Z,2.30
2023-01-08T13:43:43.177Z,5.80
2023-01-08T13:51:47.691Z,5.87
2023-01-08T13:56:15.411Z,4.43
2023-01-08T14:00:31.852Z,5.60
2023-01-08T14:13:16.575Z,7.00
2023-01-08T14:17:45.003Z,6.18
2023-01-08T14:21:52.775Z,4.72
2023-01-08T14:25:35.190Z,3.55
2023-01-08T14:29:48.665Z,4.68
2023-01-08T14:37:42.042Z,9.40
2023-01-08T14:45:54.635Z,4.40
2023-01-08T14:50:05.893Z,6.25
2023-01-08T14:58:03.765Z,4.28
2023-01-08T15:06:11.646Z,4.20
2023-01-08T15:10:27.143Z,4.40
2023-01-08T15:18:26.463Z,3.85
2023-01-08T15:26:23.802Z,3.67
2023-01-08T15:34:19.549Z,8.50
2023-01-08T15:38:31.393Z,5.90
2023-01-08T15:46:35.625Z,5.10
2023-01-08T15:50:53.474Z,5.38
2023-01-08T15:54:35.548Z,2.80
2023-01-08T16:02:22.587Z,4.07
2023-01-08T16:06:51.620Z,3.63
2023-01-08T16:11:05.573Z,4.13
2023-01-08T16:14:48.186Z,3.65
2023-01-08T16:22:38.423Z,3.83
2023-01-08T16:27:06.984Z,2.65
2023-01-08T16:30:52.458Z,3.67
2023-01-08T16:34:36.968Z,4.40
2023-01-08T16:38:19.679Z,5.68
2023-01-08T16:42:05.065Z,3.22
2023-01-08T16:49:51.201Z,4.72
2023-01-08T16:53:35.675Z,3.85
2023-01-08T16:57:17.640Z,4.97
2023-01-08T17:00:59.693Z,4.00
2023-01-08T17:04:41.994Z,5.75
2023-01-08T17:08:26.796Z,5.90
2023-01-08T17:12:08.749Z,4.40
2023-01-08T17:15:53.252Z,3.92
2023-01-08T17:19:35.290Z,3.13
2023-01-08T17:23:17.261Z,9.23
2023-01-08T17:26:59.163Z,5.80
2023-01-08T17:30:41.135Z,8.82
2023-01-08T17:34:23.139Z,3.87
2023-01-08T17:38:05.096Z,7.13
2023-01-08T17:42:05.486Z,5.80
2023-01-08T17:45:47.524Z,6.38
2023-01-08T17:49:31.039Z,9.53
2023-01-08T17:53:12.922Z,8.15
2023-01-08T17:56:54.926Z,9.70
2023-01-08T18:00:37.304Z,7.53
2023-01-08T18:04:19.392Z,10.75
2023-01-08T18:08:01.435Z,9.55
2023-01-08T18:11:43.731Z,11.83
2023-01-08T18:15:25.750Z,21.52
2023-01-08T18:19:07.707Z,19.67
2023-01-08T18:22:49.790Z,13.82
2023-01-08T18:26:32.176Z,11.63
2023-01-08T18:30:14.270Z,11.68
2023-01-08T18:33:56.455Z,9.05
2023-01-08T18:37:38.452Z,13.47
2023-01-08T18:41:39.792Z,14.07
2023-01-08T18:45:21.841Z,14.07
2023-01-08T18:49:04.707Z,6.57
2023-01-08T18:52:46.708Z,10.57
2023-01-08T18:56:33.778Z,17.17
2023-01-08T19:00:15.915Z,10.82
2023-01-08T19:03:57.803Z,17.77
2023-01-08T19:07:41.724Z,17.75
2023-01-08T19:11:23.662Z,18.38
2023-01-08T19:15:06.635Z,16.63
2023-01-08T19:18:48.671Z,14.25
2023-01-08T19:22:32.173Z,8.70
2023-01-08T19:26:14.714Z,18.00
2023-01-08T19:29:56.647Z,11.85
2023-01-08T19:33:38.645Z,10.18
2023-01-08T19:37:20.819Z,13.40
2023-01-08T19:41:03.370Z,12.17
2023-01-08T19:44:45.397Z,10.63
2023-01-08T19:48:27.555Z,11.15
2023-01-08T19:52:09.547Z,10.70
2023-01-08T19:55:51.494Z,13.95
2023-01-08T19:59:33.451Z,16.38
2023-01-08T20:03:19.763Z,10.80
2023-01-08T20:07:01.758Z,7.75
2023-01-08T20:10:43.703Z,9.70
2023-01-08T20:14:26.292Z,9.32
2023-01-08T20:18:08.410Z,4.20
2023-01-08T20:21:50.513Z,7.47
2023-01-08T20:25:34.593Z,4.95
2023-01-08T20:29:17.880Z,6.60
2023-01-08T20:32:59.999Z,10.70
2023-01-08T20:36:43.852Z,7.00
2023-01-08T20:40:25.787Z,6.77
2023-01-08T20:44:07.978Z,9.45
2023-01-08T20:47:49.957Z,8.82
2023-01-08T20:51:37.547Z,10.68
2023-01-08T20:55:19.445Z,8.07
2023-01-08T20:59:02.420Z,15.15
2023-01-08T21:02:44.783Z,11.25
2023-01-08T21:06:29.295Z,13.33
2023-01-08T21:10:12.337Z,8.13
2023-01-08T21:13:55.603Z,13.10
2023-01-08T21:17:37.775Z,10.27
2023-01-08T21:21:26.377Z,8.18
2023-01-08T21:25:09.002Z,12.32
2023-01-08T21:28:51.068Z,11.77
2023-01-08T21:32:36.371Z,6.30
2023-01-08T21:36:21.682Z,9.00
2023-01-08T21:40:05.057Z,9.80
2023-01-08T21:44:05.867Z,4.93
2023-01-08T21:47:47.971Z,8.85
2023-01-08T21:51:49.005Z,5.05
2023-01-08T21:55:31.079Z,6.47
2023-01-08T21:59:13.200Z,7.30
2023-01-08T22:02:55.430Z,8.55
2023-01-08T22:06:37.491Z,4.25
2023-01-08T22:10:19.539Z,9.20
2023-01-08T22:14:01.540Z,6.78
2023-01-08T22:17:45.987Z,8.77
2023-01-08T22:21:28.508Z,10.83
2023-01-08T22:25:10.512Z,10.40
2023-01-08T22:28:52.543Z,9.85
2023-01-08T22:32:34.555Z,10.57
2023-01-08T22:36:18.992Z,7.53
2023-01-08T22:40:01.001Z,5.18
2023-01-08T22:43:43.037Z,4.15
2023-01-08T22:47:25.005Z,5.27
2023-01-08T22:51:07.103Z,3.50
2023-01-08T22:54:49.309Z,3.90
2023-01-08T22:58:31.319Z,5.30
2023-01-08T23:02:13.417Z,6.10
2023-01-08T23:06:03.356Z,4.35
2023-01-08T23:09:46.745Z,2.83
2023-01-08T23:13:28.750Z,6.05
2023-01-08T23:17:10.860Z,3.60
2023-01-08T23:20:52.992Z,4.10
2023-01-08T23:24:34.936Z,5.37
2023-01-08T23:28:17.321Z,8.07
2023-01-08T23:31:59.533Z,6.45
2023-01-08T23:35:42.719Z,5.63
2023-01-08T23:39:26.901Z,6.22
2023-01-08T23:43:09.009Z,6.60
2023-01-08T23:46:50.922Z,10.60
2023-01-08T23:50:33.092Z,5.80
2023-01-08T23:54:15.390Z,8.90
2023-01-08T23:57:58.024Z,9.00
